createdAt,value
2023-01-19T00:00:20.778Z,79.63
2023-01-19T00:04:23.427Z,80.07
2023-01-19T00:08:26.043Z,78.69
2023-01-19T00:12:30.094Z,78.65
2023-01-19T00:16:32.853Z,78.07
2023-01-19T00:20:36.328Z,78.34
2023-01-19T00:24:38.962Z,77.78
2023-01-19T00:28:43.112Z,78.14
2023-01-19T00:32:45.730Z,78.42
2023-01-19T00:36:48.379Z,79.04
2023-01-19T00:40:51.139Z,78.60
2023-01-19T00:44:55.891Z,78.91
2023-01-19T00:48:58.518Z,79.35
2023-01-19T00:53:02.352Z,79.10
2023-01-19T00:57:05.191Z,79.66
2023-01-19T01:01:09.205Z,79.70
2023-01-19T01:05:13.153Z,79.74
2023-01-19T01:09:15.859Z,80.05
2023-01-19T01:13:20.846Z,79.84
2023-01-19T01:17:27.776Z,79.85
2023-01-19T01:21:30.619Z,78.73
2023-01-19T01:25:37.379Z,79.51
2023-01-19T01:29:41.262Z,80.43
2023-01-19T01:33:45.217Z,80.04
2023-01-19T01:37:47.807Z,79.82
2023-01-19T01:41:50.510Z,79.98
2023-01-19T01:45:56.517Z,80.76
2023-01-19T01:50:08.132Z,80.61
2023-01-19T01:54:16.582Z,80.64
2023-01-19T01:58:19.257Z,80.73
2023-01-19T02:02:42.299Z,80.80
2023-01-19T02:07:05.264Z,80.38
2023-01-19T02:11:25.929Z,80.58
2023-01-19T02:15:28.555Z,80.45
2023-01-19T02:19:38.228Z,80.64
2023-01-19T02:23:45.244Z,79.95
2023-01-19T02:27:48.993Z,80.10
2023-01-19T02:31:52.332Z,80.14
2023-01-19T02:35:57.691Z,79.58
2023-01-19T02:40:03.797Z,79.78
2023-01-19T02:44:09.626Z,79.73
2023-01-19T02:48:12.270Z,78.85
2023-01-19T02:52:17.824Z,78.90
2023-01-19T02:56:40.125Z,78.67
2023-01-19T03:00:51.177Z,79.09
2023-01-19T03:05:01.042Z,79.62
2023-01-19T03:09:12.409Z,79.47
2023-01-19T03:13:27.283Z,79.74
2023-01-19T03:17:33.039Z,80.02
2023-01-19T03:21:38.333Z,80.20
2023-01-19T03:25:44.246Z,80.56
2023-01-19T03:29:53.210Z,80.83
2023-01-19T03:33:59.366Z,81.00
2023-01-19T03:38:08.642Z,80.70
2023-01-19T03:42:14.582Z,81.04
2023-01-19T03:46:20.255Z,80.87
2023-01-19T03:50:27.320Z,81.09
2023-01-19T03:54:29.886Z,81.04
2023-01-19T03:58:32.495Z,81.32
2023-01-19T04:02:36.457Z,81.53
2023-01-19T04:06:39.117Z,81.11
2023-01-19T04:10:41.756Z,81.54
2023-01-19T04:14:44.384Z,81.31
2023-01-19T04:18:48.565Z,81.32
2023-01-19T04:22:51.188Z,81.68
2023-01-19T04:26:54.282Z,81.21
2023-01-19T04:30:57.101Z,81.83
2023-01-19T04:35:01.102Z,81.57
2023-01-19T04:39:04.993Z,81.43
2023-01-19T04:43:08.237Z,81.55
2023-01-19T04:47:11.386Z,82.15
2023-01-19T04:51:15.340Z,82.25
2023-01-19T04:55:18.435Z,81.97
2023-01-19T04:59:21.515Z,82.32
2023-01-19T05:03:25.744Z,81.71
2023-01-19T05:07:30.848Z,81.72
2023-01-19T05:11:33.451Z,81.69
2023-01-19T05:15:36.121Z,81.59
2023-01-19T05:19:39.167Z,81.57
2023-01-19T05:23:43.228Z,81.13
2023-01-19T05:27:46.073Z,81.49
2023-01-19T05:31:48.800Z,81.68
2023-01-19T05:35:51.899Z,93.45
2023-01-19T05:39:55.876Z,94.78
2023-01-19T05:43:58.556Z,93.88
2023-01-19T05:48:01.207Z,92.46
2023-01-19T05:52:03.841Z,90.08
2023-01-19T05:56:09.841Z,85.71
2023-01-19T06:00:13.757Z,83.71
2023-01-19T06:04:16.342Z,80.46
2023-01-19T06:08:18.923Z,82.74
2023-01-19T06:12:22.955Z,84.28
2023-01-19T06:16:25.703Z,77.73
2023-01-19T06:20:28.367Z,77.66
2023-01-19T06:24:31.040Z,78.00
2023-01-19T06:28:35.173Z,80.14
2023-01-19T06:32:38.402Z,80.51
2023-01-19T06:36:41.226Z,80.91
2023-01-19T06:40:44.211Z,81.98
2023-01-19T06:44:48.226Z,81.51
2023-01-19T06:48:50.999Z,81.78
2023-01-19T06:52:54.202Z,81.95
2023-01-19T06:56:56.862Z,81.90
2023-01-19T07:01:03.596Z,82.70
2023-01-19T07:05:09.351Z,83.43
2023-01-19T07:09:14.218Z,82.49
2023-01-19T07:13:18.221Z,82.50
2023-01-19T07:17:22.318Z,83.18
2023-01-19T07:21:25.249Z,82.77
2023-01-19T07:25:27.997Z,83.22
2023-01-19T07:29:30.580Z,83.30
2023-01-19T07:33:34.542Z,82.86
2023-01-19T07:37:37.611Z,82.88
2023-01-19T07:41:40.242Z,82.67
2023-01-19T07:45:43.911Z,83.23
2023-01-19T07:49:47.925Z,82.67
2023-01-19T07:53:51.700Z,82.64
2023-01-19T07:57:54.339Z,83.03
2023-01-19T08:01:59.224Z,83.83
2023-01-19T08:06:05.281Z,85.54
2023-01-19T08:10:08.924Z,83.73
2023-01-19T08:14:11.773Z,79.46
2023-01-19T08:18:15.632Z,81.23
2023-01-19T08:22:19.590Z,82.24
2023-01-19T08:26:27.446Z,83.00
2023-01-19T08:30:30.412Z,83.24
2023-01-19T08:34:33.521Z,82.60
2023-01-19T08:38:39.483Z,82.40
2023-01-19T08:42:42.129Z,82.50
2023-01-19T08:46:44.922Z,82.34
2023-01-19T08:50:48.007Z,82.17
2023-01-19T08:54:52.238Z,81.64
2023-01-19T08:59:08.231Z,80.59
2023-01-19T09:03:13.959Z,80.23
2023-01-19T09:07:17.545Z,79.29
2023-01-19T09:11:22.187Z,79.15
2023-01-19T09:15:25.159Z,79.28
2023-01-19T09:19:28.076Z,79.41
2023-01-19T09:23:31.410Z,78.26
2023-01-19T09:27:35.839Z,78.26
2023-01-19T09:31:40.233Z,78.89
2023-01-19T09:35:44.383Z,78.45
2023-01-19T09:39:47.076Z,78.70
2023-01-19T09:43:55.814Z,78.00
2023-01-19T09:48:01.221Z,77.83
2023-01-19T09:52:04.775Z,77.27
2023-01-19T09:56:13.785Z,77.08
2023-01-19T10:00:19.131Z,77.01
2023-01-19T10:04:31.005Z,75.85
2023-01-19T10:08:42.862Z,74.87
2023-01-19T10:12:54.485Z,74.81
2023-01-19T10:17:05.599Z,72.92
2023-01-19T10:21:15.481Z,72.97
2023-01-19T10:25:23.762Z,72.52
2023-01-19T10:29:34.466Z,71.95
2023-01-19T10:33:39.652Z,71.89
2023-01-19T10:37:44.781Z,72.30
2023-01-19T10:41:52.390Z,71.42
2023-01-19T10:45:55.124Z,71.64
2023-01-19T10:49:59.195Z,70.84
2023-01-19T10:54:03.579Z,70.97
2023-01-19T10:58:08.099Z,70.49
2023-01-19T11:02:18.533Z,70.01
2023-01-19T11:06:32.821Z,68.45
2023-01-19T11:10:35.769Z,67.48
2023-01-19T11:14:39.715Z,67.51
2023-01-19T11:18:44.237Z,66.69
2023-01-19T11:22:49.055Z,65.40
2023-01-19T11:27:03.687Z,65.64
2023-01-19T11:31:19.109Z,65.89
2023-01-19T11:35:35.314Z,64.92
2023-01-19T11:39:49.336Z,65.62
2023-01-19T11:43:55.539Z,63.18
2023-01-19T11:47:58.291Z,61.86
2023-01-19T11:52:05.379Z,60.49
2023-01-19T11:56:11.976Z,62.42
2023-01-19T12:00:23.764Z,61.68
2023-01-19T12:04:29.532Z,59.90
2023-01-19T12:08:37.270Z,61.90
2023-01-19T12:12:42.513Z,60.83
2023-01-19T12:16:46.220Z,60.43
2023-01-19T12:20:52.391Z,61.24
2023-01-19T12:25:01.863Z,60.33
2023-01-19T12:29:12.596Z,59.43
2023-01-19T12:33:22.825Z,59.75
2023-01-19T12:37:41.667Z,60.48
2023-01-19T12:41:45.877Z,60.48
2023-01-19T12:45:49.943Z,60.10
2023-01-19T12:49:57.059Z,60.76
2023-01-19T12:54:00.527Z,61.30
2023-01-19T12:58:06.513Z,61.57
2023-01-19T13:02:42.158Z,61.13
2023-01-19T13:07:10.340Z,59.65
2023-01-19T13:11:19.576Z,58.97
2023-01-19T13:15:34.547Z,60.00
2023-01-19T13:19:48.758Z,59.58
2023-01-19T13:23:56.820Z,64.88
2023-01-19T13:28:00.063Z,60.77
2023-01-19T13:32:05.344Z,61.21
2023-01-19T13:36:20.494Z,62.47
2023-01-19T13:40:25.494Z,63.86
2023-01-19T13:44:31.101Z,64.49
2023-01-19T13:48:33.966Z,65.20
2023-01-19T13:52:37.985Z,66.56
2023-01-19T13:56:42.630Z,67.09
2023-01-19T14:00:46.808Z,67.25
2023-01-19T14:04:49.542Z,68.09
2023-01-19T14:13:21.438Z,68.44
2023-01-19T14:17:26.654Z,68.29
2023-01-19T14:21:39.111Z,68.70
2023-01-19T14:25:45.805Z,69.13
2023-01-19T14:29:53.580Z,68.77
2023-01-19T14:33:58.575Z,68.56
2023-01-19T14:38:01.217Z,67.21
2023-01-19T14:42:07.699Z,68.04
2023-01-19T14:46:18.411Z,68.43
2023-01-19T14:50:24.822Z,67.96
2023-01-19T14:54:33.981Z,68.24
2023-01-19T14:58:36.839Z,68.80
2023-01-19T15:02:40.877Z,73.14
2023-01-19T15:06:45.824Z,79.82
2023-01-19T15:10:48.791Z,72.86
2023-01-19T15:14:51.504Z,67.52
2023-01-19T15:18:55.976Z,67.91
2023-01-19T15:22:58.622Z,68.86
2023-01-19T15:27:02.562Z,68.63
2023-01-19T15:31:05.387Z,68.96
2023-01-19T15:35:15.897Z,69.46
2023-01-19T15:39:18.717Z,69.19
2023-01-19T15:43:22.041Z,69.66
2023-01-19T15:47:24.665Z,81.42
2023-01-19T15:51:29.069Z,73.48
2023-01-19T15:55:31.776Z,74.14
2023-01-19T15:59:34.406Z,66.53
2023-01-19T16:03:38.679Z,67.76
2023-01-19T16:07:42.637Z,68.86
2023-01-19T16:11:45.713Z,68.03
2023-01-19T16:15:48.502Z,67.36
2023-01-19T16:19:51.156Z,68.07
2023-01-19T16:23:55.333Z,68.86
2023-01-19T16:27:58.249Z,68.80
2023-01-19T16:32:00.914Z,68.97
2023-01-19T16:36:20.043Z,68.78
2023-01-19T16:40:24.033Z,69.04
2023-01-19T16:44:26.829Z,69.17
2023-01-19T16:48:32.924Z,69.04
2023-01-19T16:52:35.542Z,69.14
2023-01-19T16:56:39.521Z,69.01
2023-01-19T17:00:42.143Z,68.84
2023-01-19T17:04:44.757Z,69.45
2023-01-19T17:08:47.777Z,69.03
2023-01-19T17:12:51.695Z,69.13
2023-01-19T17:16:54.453Z,69.21
2023-01-19T17:21:02.111Z,69.42
2023-01-19T17:25:05.185Z,69.98
2023-01-19T17:29:10.810Z,70.56
2023-01-19T17:33:13.432Z,70.65
2023-01-19T17:37:16.110Z,70.79
2023-01-19T17:41:20.896Z,70.98
2023-01-19T17:45:24.907Z,71.04
2023-01-19T17:49:27.727Z,70.72
2023-01-19T17:53:30.369Z,71.17
2023-01-19T17:57:33.232Z,70.96
2023-01-19T18:01:40.352Z,71.48
2023-01-19T18:05:43.147Z,71.39
2023-01-19T18:09:45.793Z,71.30
2023-01-19T18:13:49.835Z,83.64
2023-01-19T18:17:53.808Z,75.58
2023-01-19T18:21:56.673Z,70.69
2023-01-19T18:26:00.250Z,70.72
2023-01-19T18:30:02.859Z,67.53
2023-01-19T18:34:06.833Z,68.74
2023-01-19T18:38:09.500Z,70.15
2023-01-19T18:42:12.139Z,71.01
2023-01-19T18:46:15.828Z,72.26
2023-01-19T18:50:20.073Z,72.22
2023-01-19T18:54:22.733Z,71.77
2023-01-19T18:58:28.515Z,71.68
2023-01-19T19:02:31.284Z,71.79
2023-01-19T19:06:35.906Z,72.26
2023-01-19T19:10:40.846Z,72.44
2023-01-19T19:14:43.521Z,72.55
2023-01-19T19:18:49.931Z,72.16
2023-01-19T19:22:55.277Z,72.12
2023-01-19T19:26:57.886Z,71.94
2023-01-19T19:31:05.789Z,72.14
2023-01-19T19:35:09.126Z,72.17
2023-01-19T19:39:13.113Z,72.19
2023-01-19T19:43:15.824Z,72.12
2023-01-19T19:47:18.426Z,72.16
2023-01-19T19:51:23.514Z,72.54
2023-01-19T19:55:27.621Z,72.77
2023-01-19T19:59:30.367Z,72.49
2023-01-19T20:03:33.023Z,72.32
2023-01-19T20:07:35.691Z,71.62
2023-01-19T20:11:40.312Z,72.50
2023-01-19T20:15:42.967Z,71.66
2023-01-19T20:19:47.556Z,71.43
2023-01-19T20:23:52.943Z,71.56
2023-01-19T20:27:59.152Z,71.56
2023-01-19T20:32:01.929Z,71.70
2023-01-19T20:36:04.878Z,71.47
2023-01-19T20:40:07.877Z,71.24
2023-01-19T20:44:12.526Z,71.54
2023-01-19T20:48:15.194Z,71.41
2023-01-19T20:52:17.806Z,71.80
2023-01-19T20:56:20.503Z,72.05
2023-01-19T21:00:25.074Z,71.50
2023-01-19T21:04:27.759Z,71.92
2023-01-19T21:08:30.428Z,71.78
2023-01-19T21:12:33.198Z,72.21
2023-01-19T21:16:37.906Z,72.62
2023-01-19T21:20:40.556Z,72.48
2023-01-19T21:24:44.491Z,72.75
2023-01-19T21:28:47.247Z,73.13
2023-01-19T21:32:51.243Z,73.41
2023-01-19T21:36:53.946Z,73.01
2023-01-19T21:40:57.963Z,73.21
2023-01-19T21:45:00.607Z,73.26
2023-01-19T21:49:07.693Z,73.72
2023-01-19T21:53:11.349Z,73.50
2023-01-19T21:57:15.213Z,73.79
2023-01-19T22:01:17.972Z,74.17
2023-01-19T22:05:21.999Z,73.92
2023-01-19T22:09:24.635Z,73.77
2023-01-19T22:13:27.250Z,73.80
2023-01-19T22:17:29.852Z,74.07
2023-01-19T22:21:36.055Z,74.12
2023-01-19T22:25:38.689Z,74.45
2023-01-19T22:29:41.337Z,74.43
2023-01-19T22:33:45.186Z,74.69
2023-01-19T22:37:49.241Z,75.40
2023-01-19T22:41:51.914Z,75.05
2023-01-19T22:45:55.863Z,74.64
2023-01-19T22:49:58.540Z,74.91
2023-01-19T22:54:02.725Z,74.66
2023-01-19T22:58:05.340Z,74.91
2023-01-19T23:02:09.231Z,74.55
2023-01-19T23:06:13.811Z,75.26
2023-01-19T23:10:18.179Z,75.40
2023-01-19T23:14:22.401Z,75.27
2023-01-19T23:18:25.134Z,75.58
2023-01-19T23:22:27.732Z,75.73
2023-01-19T23:26:37.915Z,75.55
2023-01-19T23:30:40.780Z,75.39
2023-01-19T23:34:43.474Z,75.96
2023-01-19T23:38:49.891Z,76.12
2023-01-19T23:42:55.867Z,76.77
2023-01-19T23:46:58.509Z,77.23
2023-01-19T23:51:05.784Z,77.16
2023-01-19T23:55:09.435Z,76.66
2023-01-19T23:59:15.920Z,76.88
